EGNV/MME METAR and TAF weather

Enter ICAO airport designator
Station Type Date Time Source
EGNV METAR 2021/06/22 23:50 UTC NOAA

EGNV 222350Z 26005KT CAVOK 08/05 Q1024


Station Type Date Time Source
EGNV Decoded METAR 2021/06/22 23:50 UTC NOAA

Tees-Side, United Kingdom (EGNV) 54-31N 001-25W
Jun 22, 2021 - 07:50 PM EDT / 2021.06.22 2350 UTC
Wind: from the W (260 degrees) at 6 MPH (5 KT):0
Visibility: greater than 7 mile(s):0
Temperature: 46 F (8 C)
Dew Point: 41 F (5 C)
Relative Humidity: 81%
Pressure (altimeter): 30.24 in. Hg (1024 hPa)
ob: EGNV 222350Z 26005KT CAVOK 08/05 Q1024
cycle: 0

Station Type Date Time Source
EGNV TAF 2021/03/07 18:58 UTC NOAA

TAF EGNV 071951Z 0718/0820 CNL

Example: see airport list